• Join FlightAware (Why Join?)
  • Login
  • US Flag 
03:55AM EDT


 

Airport Tracker/Info


-or-


 

Live Flight TrackerFlight Track Log ✈ ASH3770 ✈ 10-Jul-2013 ✈ KORF - KIAD

Flight Track Log - Related Links

Times and Time Zones

All times are in EDT time to prevent confusion due to time zone crossing. See the ASH3770 flight status page for this flight to view local times or setup timezone preferences in your user account.

Time Position Orientation Groundspeed Altitude Reporting Facility
EDT Latitude Longitude Course Direction KTS MPH feet Rate Location/Type
05:16PM 36.8889 -76.2125 217° Southwest 155 178 500  Level Washington Center
05:17PM 36.8364 -76.2614 217° Southwest 223 257 3,200 2,220 Climbing Washington Center
05:18PM 36.7964 -76.3258 232° Southwest 261 300 5,700 2,460 Climbing Washington Center
05:19PM 36.8231 -76.4169 290° West 278 320 8,300 1,620 Climbing Washington Center
05:20PM 36.8514 -76.5108 291° West 287 330 9,000 1,020 Climbing Washington Center
05:21PM 36.8819 -76.5994 293° West 301 346 10,500 1,500 Climbing Washington Center
05:22PM 36.9144 -76.7064 291° West 308 354 12,100 1,500 Climbing Washington Center
05:23PM 36.9467 -76.8236 289° West 331 381 13,500 900 Climbing Washington Center
05:24PM 36.9789 -76.9283 291° West 350 403 14,000 240 Climbing Washington Center
05:25PM 37.0214 -77.0539 293° West 350 403 14,000  Level Washington Center
05:26PM 37.0825 -77.1592 306° West 350 403 14,000  Level Washington Center
05:27PM 37.1714 -77.2339 326° Northwest 365 420 14,000  Level Washington Center
05:28PM 37.2619 -77.3064 328° Northwest 376 433 14,000  Level Washington Center
05:29PM 37.3639 -77.3400 345° North 376 433 14,000  Level Washington Center
05:30PM 37.4700 -77.3528 355° North 371 427 14,000  Level Washington Center
05:31PM 37.5742 -77.3658 354° North 371 427 14,000  Level Washington Center
05:32PM 37.6781 -77.3786 354° North 371 427 14,000 -180 Level Washington Center
05:33PM 37.7803 -77.3917 354° North 371 427 13,700 -1,080 Descending Washington Center
05:34PM 37.8822 -77.4019 355° North 366 421 11,900 -1,860 Descending Washington Center
05:35PM 37.9758 -77.4172 353° North 353 406 10,000 -960 Descending Washington Center
05:36PM 38.0633 -77.4300 353° North 341 392 10,000  Level Washington Center
05:37PM 38.1331 -77.3631 37° Northeast 291 335 10,000  Level Washington Center
05:38PM 38.2147 -77.3492 North 291 335 10,000 -600 Level Washington Center
05:39PM 38.2958 -77.3536 358° North 281 323 8,900 -1,560 Descending Washington Center
05:40PM 38.3731 -77.3556 359° North 276 318 7,000 -1,860 Descending Washington Center
05:41PM 38.4500 -77.3600 357° North 276 318 5,200 -1,500 Descending Washington Center
05:42PM 38.5272 -77.3644 357° North 270 311 4,000 -600 Descending Washington Center
05:43PM 38.6042 -77.3664 359° North 270 311 4,000  Level Washington Center
05:44PM 38.6814 -77.3628 North 270 311 4,000  Level Washington Center
05:45PM 38.7586 -77.3619 360° North 270 311 4,000  Level Washington Center
05:47PM 38.8667 -77.3500 North 271 312 4,000  Level Potomac TRACON
05:48PM 38.9500 -77.3500 360° North 273 314 4,000 -480 Level Potomac TRACON
05:49PM 39.0167 -77.3500 360° North 273 314 3,000 -1,020 Descending Potomac TRACON
05:50PM 39.0833 -77.4000 330° Northwest 248 285 2,000 -1,020 Descending Potomac TRACON